createdAt,value
2019-03-04T00:01:01.090Z,3.57
2019-03-04T00:02:04.804Z,3.54
2019-03-04T00:03:08.541Z,3.54
2019-03-04T00:04:12.180Z,3.57
2019-03-04T00:05:15.815Z,3.60
2019-03-04T00:06:19.449Z,3.66
2019-03-04T00:07:23.416Z,3.71
2019-03-04T00:08:27.015Z,3.75
2019-03-04T00:09:30.665Z,3.70
2019-03-04T00:10:34.351Z,3.53
2019-03-04T00:11:37.951Z,3.44
2019-03-04T00:12:41.585Z,3.32
2019-03-04T00:13:45.256Z,3.25
2019-03-04T00:14:48.898Z,3.26
2019-03-04T00:15:52.532Z,3.34
2019-03-04T00:16:56.229Z,3.39
2019-03-04T00:17:59.868Z,3.41
2019-03-04T00:19:03.549Z,3.41
2019-03-04T00:20:08.998Z,3.37
2019-03-04T00:21:12.642Z,3.34
2019-03-04T00:22:16.285Z,3.26
2019-03-04T00:23:19.984Z,3.15
2019-03-04T00:24:23.662Z,3.14
2019-03-04T00:25:27.293Z,3.06
2019-03-04T00:26:30.929Z,2.95
2019-03-04T00:27:34.657Z,3.03
2019-03-04T00:28:38.291Z,3.13
2019-03-04T00:29:41.957Z,3.23
2019-03-04T00:30:45.595Z,3.31
2019-03-04T00:31:49.232Z,3.27
2019-03-04T00:32:53.281Z,3.23
2019-03-04T00:33:56.921Z,3.16
2019-03-04T00:35:00.511Z,3.00
2019-03-04T00:36:04.146Z,2.81
2019-03-04T00:37:07.783Z,2.68
2019-03-04T00:38:11.425Z,2.60
2019-03-04T00:39:14.993Z,2.72
2019-03-04T00:40:18.765Z,2.81
2019-03-04T00:41:22.409Z,2.91
2019-03-04T00:42:26.056Z,2.95
2019-03-04T00:43:29.690Z,2.99
2019-03-04T00:44:33.323Z,2.85
2019-03-04T00:45:37.004Z,2.65
2019-03-04T00:46:40.574Z,2.57
2019-03-04T00:47:44.203Z,2.54
2019-03-04T00:48:47.843Z,2.48
2019-03-04T00:49:51.517Z,2.53
2019-03-04T00:50:55.087Z,2.41
2019-03-04T00:51:58.717Z,2.45
2019-03-04T00:53:02.357Z,2.57
2019-03-04T00:54:06.002Z,2.65
2019-03-04T00:55:10.884Z,2.69
2019-03-04T00:56:14.526Z,2.70
2019-03-04T00:57:18.184Z,2.70
2019-03-04T00:58:21.806Z,2.67
2019-03-04T00:59:25.449Z,2.61
2019-03-04T01:00:29.116Z,2.53
2019-03-04T01:01:32.755Z,2.42
2019-03-04T01:02:36.405Z,2.35
2019-03-04T01:03:40.087Z,2.41
2019-03-04T01:04:43.683Z,2.46
2019-03-04T01:05:47.370Z,2.52
2019-03-04T01:06:51.008Z,2.58
2019-03-04T01:07:54.687Z,2.65
2019-03-04T01:08:58.330Z,2.60
2019-03-04T01:10:01.975Z,2.53
2019-03-04T01:11:06.876Z,2.59
2019-03-04T01:12:10.514Z,2.66
2019-03-04T01:13:14.151Z,2.50
2019-03-04T01:14:17.800Z,2.41
2019-03-04T01:15:22.577Z,2.38
2019-03-04T01:16:26.300Z,2.45
2019-03-04T01:17:29.936Z,2.51
2019-03-04T01:18:33.901Z,2.57
2019-03-04T01:19:37.528Z,2.59
2019-03-04T01:20:41.219Z,2.57
2019-03-04T01:21:44.856Z,2.49
2019-03-04T01:22:48.495Z,2.42
2019-03-04T01:23:52.129Z,2.33
2019-03-04T01:24:55.772Z,2.25
2019-03-04T01:25:59.417Z,2.19
2019-03-04T01:27:03.087Z,2.17
2019-03-04T01:28:06.720Z,2.24
2019-03-04T01:29:10.419Z,2.33
2019-03-04T01:30:22.679Z,2.40
2019-03-04T01:31:26.608Z,2.32
2019-03-04T01:32:30.298Z,2.37
2019-03-04T01:33:33.920Z,2.32
2019-03-04T01:34:37.933Z,2.29
2019-03-04T01:35:41.575Z,2.21
2019-03-04T01:36:45.200Z,2.12
2019-03-04T01:37:49.169Z,2.05
2019-03-04T01:38:52.807Z,1.99
2019-03-04T01:39:56.392Z,2.05
2019-03-04T01:41:00.036Z,2.13
2019-03-04T01:42:03.685Z,2.17
2019-03-04T01:43:07.355Z,2.24
2019-03-04T01:44:11.002Z,2.29
2019-03-04T01:45:16.511Z,2.16
2019-03-04T01:46:20.508Z,1.97
2019-03-04T01:47:24.140Z,1.84
2019-03-04T01:48:27.809Z,1.69
2019-03-04T01:49:31.439Z,1.55
2019-03-04T01:50:35.004Z,1.50
2019-03-04T01:51:38.640Z,1.54
2019-03-04T01:52:42.625Z,1.66
2019-03-04T01:53:46.288Z,1.75
2019-03-04T01:54:49.930Z,1.86
2019-03-04T01:55:53.570Z,1.92
2019-03-04T01:56:57.211Z,1.86
2019-03-04T01:58:00.844Z,1.79
2019-03-04T01:59:04.525Z,1.76
2019-03-04T02:00:16.632Z,1.68
2019-03-04T02:01:20.201Z,1.66
2019-03-04T02:02:23.893Z,1.70
2019-03-04T02:03:27.531Z,1.76
2019-03-04T02:04:31.213Z,1.78
2019-03-04T02:05:34.848Z,1.85
2019-03-04T02:06:38.486Z,1.89
2019-03-04T02:07:42.234Z,1.93
2019-03-04T02:08:45.879Z,1.88
2019-03-04T02:09:49.539Z,1.76
2019-03-04T02:10:53.178Z,1.68
2019-03-04T02:11:56.833Z,1.59
2019-03-04T02:13:00.493Z,1.40
2019-03-04T02:14:04.320Z,1.33
2019-03-04T02:15:11.100Z,1.31
2019-03-04T02:16:14.730Z,1.32
2019-03-04T02:17:18.448Z,1.39
2019-03-04T02:18:22.085Z,1.47
2019-03-04T02:19:25.737Z,1.52
2019-03-04T02:20:29.406Z,1.60
2019-03-04T02:21:33.043Z,1.56
2019-03-04T02:22:36.685Z,1.50
2019-03-04T02:23:40.413Z,1.46
2019-03-04T02:24:44.051Z,1.47
2019-03-04T02:25:50.661Z,1.41
2019-03-04T02:26:54.978Z,1.37
2019-03-04T02:27:58.611Z,1.32
2019-03-04T02:29:02.245Z,1.34
2019-03-04T02:30:17.594Z,1.36
2019-03-04T02:31:21.273Z,1.41
2019-03-04T02:32:24.911Z,1.45
2019-03-04T02:33:29.453Z,1.39
2019-03-04T02:34:33.090Z,1.28
2019-03-04T02:35:36.824Z,1.18
2019-03-04T02:36:40.492Z,1.18
2019-03-04T02:37:44.124Z,1.21
2019-03-04T02:38:47.756Z,1.19
2019-03-04T02:39:51.389Z,1.18
2019-03-04T02:40:57.039Z,1.17
2019-03-04T02:42:00.751Z,1.16
2019-03-04T02:43:04.403Z,1.19
2019-03-04T02:44:08.045Z,1.26
2019-03-04T02:45:14.613Z,1.31
2019-03-04T02:46:18.229Z,1.36
2019-03-04T02:47:22.207Z,1.30
2019-03-04T02:48:25.841Z,1.22
2019-03-04T02:49:29.545Z,1.19
2019-03-04T02:50:33.183Z,1.19
2019-03-04T02:51:36.816Z,1.17
2019-03-04T02:52:40.491Z,1.16
2019-03-04T02:53:44.125Z,1.15
2019-03-04T02:54:47.762Z,1.18
2019-03-04T02:55:51.397Z,1.23
2019-03-04T02:56:55.032Z,1.24
2019-03-04T02:57:58.705Z,1.10
2019-03-04T02:59:02.333Z,1.01
2019-03-04T03:00:08.883Z,1.04
2019-03-04T03:01:12.792Z,0.97
2019-03-04T03:02:16.424Z,0.96
2019-03-04T03:03:20.132Z,0.96
2019-03-04T03:04:23.815Z,0.92
2019-03-04T03:05:27.429Z,0.94
2019-03-04T03:06:31.001Z,0.92
2019-03-04T03:07:34.639Z,0.97
2019-03-04T03:08:38.314Z,0.97
2019-03-04T03:09:41.945Z,1.05
2019-03-04T03:10:45.583Z,1.10
2019-03-04T03:11:49.223Z,1.08
2019-03-04T03:12:53.198Z,1.01
2019-03-04T03:13:56.866Z,0.92
2019-03-04T03:15:00.613Z,0.88
2019-03-04T03:16:04.225Z,0.83
2019-03-04T03:17:07.852Z,0.79
2019-03-04T03:18:11.879Z,0.80
2019-03-04T03:19:15.551Z,0.75
2019-03-04T03:20:19.182Z,0.80
2019-03-04T03:21:22.814Z,0.84
2019-03-04T03:22:26.752Z,0.90
2019-03-04T03:23:30.415Z,0.97
2019-03-04T03:24:34.075Z,0.98
2019-03-04T03:25:37.685Z,0.75
2019-03-04T03:26:41.323Z,0.50
2019-03-04T03:27:44.966Z,0.34
2019-03-04T03:28:48.597Z,0.33
2019-03-04T03:29:52.398Z,0.26
2019-03-04T03:30:55.973Z,0.20
2019-03-04T03:31:59.611Z,0.21
2019-03-04T03:33:03.253Z,0.14
2019-03-04T03:34:07.055Z,0.21
2019-03-04T03:35:11.127Z,0.32
2019-03-04T03:36:15.097Z,0.41
2019-03-04T03:37:18.733Z,0.49
2019-03-04T03:38:22.367Z,0.42
2019-03-04T03:39:26.008Z,0.47
2019-03-04T03:40:29.669Z,0.45
2019-03-04T03:41:33.287Z,0.41
2019-03-04T03:42:37.219Z,0.27
2019-03-04T03:43:40.860Z,0.20
2019-03-04T03:44:44.499Z,0.16
2019-03-04T03:45:48.550Z,0.09
2019-03-04T03:46:52.194Z,0.05
2019-03-04T03:47:56.027Z,0.19
2019-03-04T03:49:00.065Z,0.29
2019-03-04T03:50:05.212Z,0.35
2019-03-04T03:51:08.888Z,0.36
2019-03-04T03:52:12.532Z,0.34
2019-03-04T03:53:16.159Z,0.27
2019-03-04T03:54:19.866Z,0.30
2019-03-04T03:55:23.565Z,0.25
2019-03-04T03:56:27.237Z,0.26
2019-03-04T03:57:30.955Z,0.24
2019-03-04T03:58:34.602Z,0.26
2019-03-04T03:59:38.251Z,0.24
2019-03-04T04:00:41.873Z,0.18
2019-03-04T04:01:45.532Z,0.23
2019-03-04T04:02:49.275Z,0.29
2019-03-04T04:03:53.008Z,0.37
2019-03-04T04:04:56.642Z,0.42
2019-03-04T04:06:00.282Z,0.37
2019-03-04T04:07:03.951Z,0.33
2019-03-04T04:08:07.585Z,0.24
2019-03-04T04:09:11.225Z,0.17
2019-03-04T04:10:16.062Z,0.10
2019-03-04T04:11:19.702Z,0.11
2019-03-04T04:12:23.375Z,0.09
2019-03-04T04:13:27.013Z,0.04
2019-03-04T04:14:30.645Z,0.10
2019-03-04T04:15:34.276Z,0.18
2019-03-04T04:16:38.172Z,0.25
2019-03-04T04:17:41.863Z,0.38
2019-03-04T04:18:45.468Z,0.51
2019-03-04T04:19:49.127Z,0.44
2019-03-04T04:20:52.760Z,0.41
2019-03-04T04:21:56.383Z,0.36
2019-03-04T04:23:00.058Z,0.29
2019-03-04T04:24:04.271Z,0.08
2019-03-04T04:25:09.212Z,-0.01
2019-03-04T04:26:22.266Z,0.00
2019-03-04T04:27:25.904Z,-0.07
2019-03-04T04:28:30.557Z,-0.01
2019-03-04T04:29:35.847Z,-0.01
2019-03-04T04:30:39.886Z,-0.05
2019-03-04T04:31:44.289Z,-0.11
2019-03-04T04:32:47.927Z,-0.16
2019-03-04T04:33:51.983Z,-0.24
2019-03-04T04:34:55.632Z,-0.28
2019-03-04T04:35:59.597Z,-0.28
2019-03-04T04:37:03.230Z,-0.27
2019-03-04T04:38:06.865Z,-0.29
2019-03-04T04:39:12.183Z,-0.30
2019-03-04T04:40:15.823Z,-0.31
2019-03-04T04:41:19.470Z,-0.31
2019-03-04T04:42:23.174Z,-0.50
2019-03-04T04:43:26.811Z,-0.54
2019-03-04T04:44:30.492Z,-0.68
2019-03-04T04:45:34.127Z,-0.64
2019-03-04T04:46:46.547Z,-0.68
2019-03-04T04:47:50.174Z,-0.77
2019-03-04T04:48:53.806Z,-0.88
2019-03-04T04:49:58.265Z,-0.91
2019-03-04T04:51:01.907Z,-0.91
2019-03-04T04:52:05.542Z,-0.89
2019-03-04T04:53:09.182Z,-0.91
2019-03-04T04:54:14.357Z,-0.98
2019-03-04T04:55:18.035Z,-1.02
2019-03-04T04:56:21.664Z,-1.05
2019-03-04T04:57:25.307Z,-1.12
2019-03-04T04:58:28.942Z,-1.11
2019-03-04T04:59:32.632Z,-1.13
2019-03-04T05:00:36.294Z,-0.97
2019-03-04T05:01:39.943Z,-0.80
2019-03-04T05:02:43.587Z,-0.69
2019-03-04T05:03:47.216Z,-0.73
2019-03-04T05:04:50.861Z,-0.73
2019-03-04T05:05:54.530Z,-0.80
2019-03-04T05:06:58.170Z,-0.83
2019-03-04T05:08:01.807Z,-0.85
2019-03-04T05:09:06.551Z,-0.90
2019-03-04T05:10:18.542Z,-0.97
2019-03-04T05:11:22.220Z,-1.09
2019-03-04T05:12:25.861Z,-1.02
2019-03-04T05:13:29.504Z,-1.03
2019-03-04T05:14:33.109Z,-1.03
2019-03-04T05:15:36.716Z,-0.99
2019-03-04T05:16:40.353Z,-1.01
2019-03-04T05:17:43.988Z,-1.04
2019-03-04T05:18:48.051Z,-1.05
2019-03-04T05:19:51.686Z,-1.10
2019-03-04T05:20:55.357Z,-1.10
2019-03-04T05:21:58.999Z,-1.10
2019-03-04T05:23:02.990Z,-1.11
2019-03-04T05:24:06.637Z,-1.09
2019-03-04T05:25:10.890Z,-1.09
2019-03-04T05:26:14.564Z,-1.05
2019-03-04T05:27:18.198Z,-1.06
2019-03-04T05:28:21.907Z,-1.03
2019-03-04T05:29:25.627Z,-0.99
2019-03-04T05:30:29.291Z,-0.92
2019-03-04T05:31:32.968Z,-0.94
2019-03-04T05:32:36.938Z,-0.97
2019-03-04T05:33:40.584Z,-0.95
2019-03-04T05:34:44.304Z,-0.87
2019-03-04T05:35:47.944Z,-0.80
2019-03-04T05:36:52.033Z,-0.74
2019-03-04T05:37:55.682Z,-0.68
2019-03-04T05:38:59.318Z,-0.66
2019-03-04T05:40:03.169Z,-0.68
2019-03-04T05:41:06.813Z,-0.68
2019-03-04T05:42:10.488Z,-0.73
2019-03-04T05:43:14.156Z,-0.78
2019-03-04T05:44:17.817Z,-0.89
2019-03-04T05:45:23.491Z,-0.90
2019-03-04T05:46:27.134Z,-0.87
2019-03-04T05:47:30.791Z,-0.87
2019-03-04T05:48:34.432Z,-0.95
2019-03-04T05:49:38.849Z,-0.89
2019-03-04T05:50:43.569Z,-0.82
2019-03-04T05:51:51.149Z,-0.83
2019-03-04T05:52:54.818Z,-0.82
2019-03-04T05:53:58.445Z,-0.81
2019-03-04T05:55:02.027Z,-0.72
2019-03-04T05:56:05.670Z,-0.58
2019-03-04T05:57:09.319Z,-0.47
2019-03-04T05:58:12.929Z,-0.46
2019-03-04T05:59:19.699Z,-0.47
2019-03-04T06:00:26.608Z,-0.53
2019-03-04T06:01:30.916Z,-0.48
2019-03-04T06:02:34.571Z,-0.37
2019-03-04T06:03:38.210Z,-0.47
2019-03-04T06:04:41.852Z,-0.46
2019-03-04T06:05:45.572Z,-0.46
2019-03-04T06:06:51.508Z,-0.36
2019-03-04T06:07:59.483Z,-0.38
2019-03-04T06:09:03.515Z,-0.41
2019-03-04T06:10:09.659Z,-0.42
2019-03-04T06:11:13.498Z,-0.42
2019-03-04T06:12:17.353Z,-0.34
2019-03-04T06:13:20.993Z,-0.36
2019-03-04T06:14:24.637Z,-0.28
2019-03-04T06:15:28.369Z,-0.25
2019-03-04T06:16:32.033Z,-0.29
2019-03-04T06:17:35.675Z,-0.38
2019-03-04T06:18:39.334Z,-0.41
2019-03-04T06:19:44.078Z,-0.34
2019-03-04T06:20:47.696Z,-0.26
2019-03-04T06:21:51.472Z,-0.22
2019-03-04T06:22:55.117Z,-0.23
2019-03-04T06:23:58.751Z,-0.25
2019-03-04T06:25:02.401Z,-0.12
2019-03-04T06:26:06.131Z,-0.07
2019-03-04T06:27:09.862Z,-0.08
2019-03-04T06:28:13.775Z,-0.02
2019-03-04T06:29:17.437Z,0.07
2019-03-04T06:30:26.966Z,0.13
2019-03-04T06:31:31.000Z,0.25
2019-03-04T06:32:34.588Z,0.29
2019-03-04T06:33:38.225Z,0.24
2019-03-04T06:34:41.865Z,0.30
2019-03-04T06:35:45.501Z,0.33
2019-03-04T06:36:49.129Z,0.38
2019-03-04T06:37:52.803Z,0.44
2019-03-04T06:38:56.557Z,0.51
2019-03-04T06:40:00.066Z,0.59
2019-03-04T06:41:03.772Z,0.64
2019-03-04T06:42:07.424Z,0.64
2019-03-04T06:43:14.979Z,0.86
2019-03-04T06:44:19.867Z,1.04
2019-03-04T06:45:23.589Z,1.19
2019-03-04T06:46:27.218Z,1.33
2019-03-04T06:47:30.848Z,1.49
2019-03-04T06:48:34.587Z,1.59
2019-03-04T06:49:38.260Z,1.69
2019-03-04T06:50:48.353Z,1.71
2019-03-04T06:51:51.985Z,1.80
2019-03-04T06:52:56.638Z,1.90
2019-03-04T06:54:12.503Z,1.89
2019-03-04T06:55:22.225Z,1.88
2019-03-04T06:56:34.456Z,1.90
2019-03-04T06:57:38.133Z,2.01
2019-03-04T06:58:50.421Z,2.12
2019-03-04T06:59:59.733Z,2.20
2019-03-04T07:01:06.778Z,2.31
2019-03-04T07:02:19.041Z,2.31
2019-03-04T07:03:22.776Z,2.34
2019-03-04T07:04:50.634Z,2.35
2019-03-04T07:05:54.912Z,2.39
2019-03-04T07:06:59.554Z,2.54
2019-03-04T07:08:03.191Z,2.67
2019-03-04T07:09:09.051Z,2.80
2019-03-04T07:10:13.489Z,2.94
2019-03-04T07:11:17.206Z,3.04
2019-03-04T07:12:22.341Z,3.28
2019-03-04T07:13:26.027Z,3.48
2019-03-04T07:14:29.725Z,3.44
2019-03-04T07:15:33.376Z,3.47
2019-03-04T07:16:37.084Z,3.59
2019-03-04T07:17:40.764Z,3.69
2019-03-04T07:18:44.399Z,3.69
2019-03-04T07:19:51.325Z,3.72
2019-03-04T07:20:55.075Z,3.99
2019-03-04T07:21:58.800Z,4.32
2019-03-04T07:23:02.442Z,4.42
2019-03-04T07:24:06.086Z,4.38
2019-03-04T07:25:10.613Z,4.30
2019-03-04T07:26:14.265Z,4.39
2019-03-04T07:27:17.949Z,4.47
2019-03-04T07:28:21.591Z,4.47
2019-03-04T07:29:25.303Z,4.63
2019-03-04T07:30:28.950Z,4.81
2019-03-04T07:31:32.589Z,4.92
2019-03-04T07:32:36.294Z,4.88
2019-03-04T07:33:39.952Z,4.80
2019-03-04T07:34:43.672Z,4.84
2019-03-04T07:35:47.313Z,5.00
2019-03-04T07:36:51.032Z,5.12
2019-03-04T07:38:09.454Z,5.35
2019-03-04T07:39:14.014Z,5.49
2019-03-04T07:40:22.275Z,5.65
2019-03-04T07:41:29.177Z,5.87
2019-03-04T07:42:32.783Z,6.15
2019-03-04T07:43:36.392Z,6.30
2019-03-04T07:44:39.939Z,6.32
2019-03-04T07:45:43.583Z,6.38
2019-03-04T07:46:47.217Z,6.37
2019-03-04T07:47:50.879Z,6.36
2019-03-04T07:48:54.540Z,6.61
2019-03-04T07:49:58.550Z,6.92
2019-03-04T07:51:11.055Z,7.20
2019-03-04T07:52:14.797Z,7.48
2019-03-04T07:53:19.195Z,7.69
2019-03-04T07:54:29.022Z,7.85
2019-03-04T07:55:34.290Z,7.86
2019-03-04T07:56:39.976Z,7.88
2019-03-04T07:57:43.672Z,8.17
2019-03-04T07:58:47.226Z,8.32
2019-03-04T07:59:50.894Z,8.54
2019-03-04T08:00:54.537Z,8.77
2019-03-04T08:01:58.577Z,8.94
2019-03-04T08:03:02.388Z,9.15
2019-03-04T08:04:06.024Z,9.09
2019-03-04T08:05:11.166Z,9.40
2019-03-04T08:06:14.840Z,9.67
2019-03-04T08:07:39.236Z,9.66
2019-03-04T08:09:02.134Z,9.82
2019-03-04T08:10:17.756Z,9.82
2019-03-04T08:11:42.743Z,10.00
2019-03-04T08:12:49.406Z,10.21
2019-03-04T08:14:04.910Z,10.66
2019-03-04T08:15:09.742Z,11.13
2019-03-04T08:16:13.376Z,11.47
2019-03-04T08:17:17.048Z,11.74
2019-03-04T08:18:20.697Z,11.95
2019-03-04T08:19:24.324Z,12.10
2019-03-04T08:20:27.982Z,12.29
2019-03-04T08:21:31.676Z,12.27
2019-03-04T08:22:35.345Z,12.27
2019-03-04T08:23:39.022Z,12.28
2019-03-04T08:24:42.647Z,12.44
2019-03-04T08:25:49.078Z,12.52
2019-03-04T08:26:52.799Z,12.61
2019-03-04T08:27:58.917Z,12.77
2019-03-04T08:29:04.690Z,12.76
2019-03-04T08:30:16.889Z,12.95
2019-03-04T08:31:20.531Z,12.80
2019-03-04T08:32:24.539Z,12.80
2019-03-04T08:33:28.309Z,12.68
2019-03-04T08:34:32.331Z,12.35
2019-03-04T08:35:36.070Z,12.35
2019-03-04T08:36:42.575Z,12.98
2019-03-04T08:37:47.957Z,12.94
2019-03-04T08:38:51.603Z,12.94
2019-03-04T08:39:58.252Z,12.81
2019-03-04T08:41:03.732Z,12.82
2019-03-04T08:42:07.324Z,13.07
2019-03-04T08:43:11.307Z,13.39
2019-03-04T08:44:15.057Z,13.35
2019-03-04T08:45:21.421Z,13.15
2019-03-04T08:46:25.102Z,12.85
2019-03-04T08:47:29.083Z,12.64
2019-03-04T08:48:35.592Z,12.72
2019-03-04T08:49:39.606Z,12.96
2019-03-04T08:50:43.242Z,13.08
2019-03-04T08:51:46.873Z,13.08
2019-03-04T08:52:50.509Z,13.71
2019-03-04T08:53:54.159Z,13.71
2019-03-04T08:54:58.173Z,13.84
2019-03-04T08:56:01.834Z,13.98
2019-03-04T08:57:05.507Z,13.98
2019-03-04T08:58:09.191Z,14.04
2019-03-04T08:59:12.835Z,14.36
2019-03-04T09:00:25.766Z,14.50
2019-03-04T09:01:31.190Z,14.33
2019-03-04T09:02:35.193Z,13.94
2019-03-04T09:03:38.825Z,14.28
2019-03-04T09:04:42.456Z,14.60
2019-03-04T09:05:46.229Z,14.76
2019-03-04T09:06:50.300Z,15.03
2019-03-04T09:07:53.939Z,15.42
2019-03-04T09:08:57.638Z,15.58
2019-03-04T09:10:01.266Z,15.54
2019-03-04T09:11:05.123Z,15.97
2019-03-04T09:12:08.757Z,15.99
2019-03-04T09:13:12.403Z,15.99
2019-03-04T09:14:16.163Z,16.39
2019-03-04T09:15:21.548Z,16.88
2019-03-04T09:16:25.330Z,17.05
2019-03-04T09:17:28.913Z,17.05
2019-03-04T09:18:32.596Z,17.06
2019-03-04T09:19:36.334Z,16.85
2019-03-04T09:20:39.969Z,16.88
2019-03-04T09:21:43.613Z,16.80
2019-03-04T09:22:47.358Z,17.25
2019-03-04T09:23:50.998Z,17.65
2019-03-04T09:24:54.665Z,17.69
2019-03-04T09:26:07.156Z,17.86
2019-03-04T09:27:10.797Z,18.07
2019-03-04T09:28:14.525Z,18.38
2019-03-04T09:29:18.180Z,18.45
2019-03-04T09:30:21.901Z,18.95
2019-03-04T09:31:25.553Z,19.20
2019-03-04T09:32:29.282Z,19.52
2019-03-04T09:33:32.918Z,19.59
2019-03-04T09:34:36.568Z,19.66
2019-03-04T09:35:40.242Z,19.70
2019-03-04T09:36:43.891Z,19.91
2019-03-04T09:37:47.526Z,19.90
2019-03-04T09:38:51.192Z,20.27
2019-03-04T09:39:54.847Z,20.79
2019-03-04T09:40:58.523Z,21.28
2019-03-04T09:42:03.809Z,21.51
2019-03-04T09:43:07.964Z,21.59
2019-03-04T09:44:11.603Z,21.26
2019-03-04T09:45:16.644Z,21.50
2019-03-04T09:46:21.954Z,21.81
2019-03-04T09:47:26.026Z,22.05
2019-03-04T09:48:29.644Z,21.78
2019-03-04T09:49:33.290Z,21.60
2019-03-04T09:50:41.528Z,21.69
2019-03-04T09:51:45.182Z,22.16
2019-03-04T09:53:00.403Z,22.58
2019-03-04T09:54:04.261Z,22.74
2019-03-04T09:55:09.791Z,22.52
2019-03-04T09:56:15.267Z,22.56
2019-03-04T09:57:20.581Z,23.23
2019-03-04T09:58:24.234Z,23.82
2019-03-04T09:59:35.374Z,23.68
2019-03-04T10:00:41.917Z,23.87
2019-03-04T10:01:48.966Z,24.15
2019-03-04T10:03:13.372Z,24.35
2019-03-04T10:04:35.298Z,24.51
2019-03-04T10:05:57.009Z,24.83
2019-03-04T10:07:18.667Z,24.97
2019-03-04T10:08:32.534Z,25.09
2019-03-04T10:09:36.696Z,24.57
2019-03-04T10:11:11.934Z,24.22
2019-03-04T10:12:30.135Z,24.43
2019-03-04T10:13:54.746Z,24.92
2019-03-04T10:15:08.484Z,24.76
2019-03-04T10:16:18.875Z,25.22
2019-03-04T10:17:40.505Z,25.39
2019-03-04T10:19:06.603Z,25.60
2019-03-04T10:20:25.344Z,25.67
2019-03-04T10:21:43.512Z,25.43
2019-03-04T10:23:04.578Z,25.44
2019-03-04T10:24:33.772Z,25.55
2019-03-04T10:25:48.754Z,25.57
2019-03-04T10:27:07.323Z,25.69
2019-03-04T10:28:30.286Z,26.02
2019-03-04T10:29:53.279Z,25.99
2019-03-04T10:31:27.006Z,25.67
2019-03-04T10:33:05.508Z,25.58
2019-03-04T10:34:23.915Z,25.92
2019-03-04T10:35:30.542Z,25.54
2019-03-04T10:36:55.076Z,24.37
2019-03-04T10:38:04.350Z,24.23
2019-03-04T10:39:27.337Z,24.58
2019-03-04T10:40:39.644Z,24.60
2019-03-04T10:41:58.417Z,24.95
2019-03-04T10:43:16.575Z,24.90
2019-03-04T10:44:44.222Z,24.82
2019-03-04T10:45:55.715Z,24.68
2019-03-04T10:46:59.619Z,25.23
2019-03-04T10:48:03.331Z,25.14
2019-03-04T10:49:06.970Z,25.30
2019-03-04T10:50:11.482Z,25.43
2019-03-04T10:51:15.157Z,25.40
2019-03-04T10:52:18.798Z,25.79
2019-03-04T10:53:22.451Z,26.31
2019-03-04T10:54:26.081Z,26.63
2019-03-04T10:55:41.653Z,27.07
2019-03-04T10:56:41.602Z,26.99
2019-03-04T10:57:43.876Z,26.80
2019-03-04T10:58:47.528Z,26.86
2019-03-04T10:59:52.643Z,26.94
2019-03-04T11:00:56.283Z,27.34
2019-03-04T11:01:59.954Z,27.86
2019-03-04T11:03:03.588Z,28.56
2019-03-04T11:04:07.325Z,28.88
2019-03-04T11:05:15.603Z,28.95
2019-03-04T11:06:19.304Z,28.25
2019-03-04T11:07:22.975Z,28.64
2019-03-04T11:08:26.604Z,29.20
2019-03-04T11:09:30.616Z,29.36
2019-03-04T11:10:34.247Z,29.28
2019-03-04T11:11:40.311Z,29.41
2019-03-04T11:12:44.050Z,29.58
2019-03-04T11:13:47.608Z,29.97
2019-03-04T11:14:51.231Z,29.01
2019-03-04T11:15:54.948Z,28.73
2019-03-04T11:17:01.557Z,28.73
2019-03-04T11:18:06.798Z,28.51
2019-03-04T11:19:10.484Z,28.81
2019-03-04T11:20:14.469Z,29.33
2019-03-04T11:21:24.162Z,29.39
2019-03-04T11:22:23.574Z,29.56
2019-03-04T11:23:28.131Z,30.29
2019-03-04T11:24:31.761Z,31.06
2019-03-04T11:25:35.447Z,31.37
2019-03-04T11:26:39.251Z,30.91
2019-03-04T11:27:43.087Z,31.07
2019-03-04T11:28:46.787Z,30.69
2019-03-04T11:29:50.421Z,30.36
2019-03-04T11:30:54.127Z,30.81
2019-03-04T11:31:57.877Z,30.80
2019-03-04T11:33:01.529Z,30.68
2019-03-04T11:34:05.230Z,31.21
2019-03-04T11:35:11.782Z,31.85
2019-03-04T11:36:15.409Z,32.22
2019-03-04T11:37:19.107Z,31.24
2019-03-04T11:38:33.655Z,31.27
2019-03-04T11:39:44.910Z,31.46
2019-03-04T11:40:50.220Z,30.18
2019-03-04T11:41:53.872Z,29.87
2019-03-04T11:42:57.628Z,30.35
2019-03-04T11:44:05.124Z,31.03
2019-03-04T11:45:12.051Z,31.57
2019-03-04T11:46:16.553Z,32.27
2019-03-04T11:47:21.854Z,33.16
2019-03-04T11:48:25.530Z,33.78
2019-03-04T11:49:29.158Z,34.03
2019-03-04T11:50:34.463Z,33.56
2019-03-04T11:51:39.563Z,33.35
2019-03-04T11:52:43.473Z,33.18
2019-03-04T11:53:47.100Z,32.87
2019-03-04T11:54:53.413Z,32.90
2019-03-04T11:55:57.266Z,33.05
2019-03-04T11:57:02.355Z,33.40
2019-03-04T11:58:06.111Z,33.22
2019-03-04T11:59:11.235Z,33.35
2019-03-04T12:00:25.229Z,33.60
2019-03-04T12:01:38.572Z,33.92
2019-03-04T12:02:42.384Z,34.42
2019-03-04T12:03:46.094Z,34.21
2019-03-04T12:04:49.790Z,34.71
2019-03-04T12:05:53.496Z,34.61
2019-03-04T12:07:01.880Z,34.84
2019-03-04T12:08:05.528Z,34.96
2019-03-04T12:09:12.404Z,35.13
2019-03-04T12:10:17.494Z,34.92
2019-03-04T12:11:21.510Z,34.55
2019-03-04T12:12:25.189Z,34.36
2019-03-04T12:13:29.243Z,34.29
2019-03-04T12:14:32.876Z,34.09
2019-03-04T12:15:37.276Z,33.80
2019-03-04T12:16:40.939Z,33.99
2019-03-04T12:17:45.002Z,34.38
2019-03-04T12:18:50.681Z,34.71
2019-03-04T12:19:54.239Z,35.07
2019-03-04T12:20:58.234Z,34.96
2019-03-04T12:22:01.872Z,34.95
2019-03-04T12:23:05.530Z,34.39
2019-03-04T12:24:09.159Z,34.03
2019-03-04T12:25:20.349Z,33.36
2019-03-04T12:26:26.483Z,32.75
2019-03-04T12:27:30.120Z,32.88
2019-03-04T12:28:33.794Z,33.00
2019-03-04T12:29:37.719Z,33.37
2019-03-04T12:30:41.358Z,32.78
2019-03-04T12:31:46.556Z,32.58
2019-03-04T12:32:51.099Z,32.30
2019-03-04T12:33:54.753Z,32.07
2019-03-04T12:34:58.386Z,32.28
2019-03-04T12:36:02.019Z,32.93
2019-03-04T12:37:06.047Z,33.40
2019-03-04T12:38:09.752Z,33.66
2019-03-04T12:39:13.717Z,33.51
2019-03-04T12:40:18.660Z,33.56
2019-03-04T12:41:22.355Z,33.87
2019-03-04T12:42:25.981Z,34.11
2019-03-04T12:43:29.654Z,34.28
2019-03-04T12:44:33.318Z,34.13
2019-03-04T12:45:36.957Z,33.60
2019-03-04T12:46:40.597Z,33.59
2019-03-04T12:47:44.646Z,33.66
2019-03-04T12:48:48.308Z,33.38
2019-03-04T12:49:51.965Z,33.49
2019-03-04T12:50:55.602Z,33.42
2019-03-04T12:51:59.220Z,33.64
2019-03-04T12:53:02.973Z,33.43
2019-03-04T12:54:06.713Z,33.52
2019-03-04T12:55:11.487Z,33.58
2019-03-04T12:56:15.124Z,33.84
2019-03-04T12:57:18.759Z,33.02
2019-03-04T12:58:22.406Z,32.37
2019-03-04T12:59:25.958Z,31.91
2019-03-04T13:00:34.179Z,31.92
2019-03-04T13:01:37.810Z,31.93
2019-03-04T13:02:41.828Z,32.25
2019-03-04T13:03:48.311Z,32.79
2019-03-04T13:04:51.938Z,32.62
2019-03-04T13:05:55.599Z,32.52
2019-03-04T13:06:59.292Z,32.57
2019-03-04T13:08:02.995Z,32.27
2019-03-04T13:09:14.057Z,32.09
2019-03-04T13:10:16.661Z,31.97
2019-03-04T13:11:21.773Z,32.04
2019-03-04T13:12:25.403Z,32.34
2019-03-04T13:13:34.845Z,32.42
2019-03-04T13:14:38.474Z,32.69
2019-03-04T13:15:42.112Z,32.67
2019-03-04T13:16:45.791Z,32.57
2019-03-04T13:17:49.547Z,32.32
2019-03-04T13:18:54.199Z,32.10
2019-03-04T13:19:57.779Z,32.26
2019-03-04T13:21:04.532Z,31.44
2019-03-04T13:22:08.949Z,31.85
2019-03-04T13:23:12.756Z,32.36
2019-03-04T13:24:16.392Z,31.86
2019-03-04T13:25:22.191Z,31.85
2019-03-04T13:26:28.657Z,32.11
2019-03-04T13:27:32.362Z,32.30
2019-03-04T13:28:41.745Z,32.44
2019-03-04T13:29:45.293Z,32.08
2019-03-04T13:30:48.999Z,31.73
2019-03-04T13:31:52.977Z,31.67
2019-03-04T13:32:56.713Z,31.34
2019-03-04T13:34:01.925Z,31.22
2019-03-04T13:35:11.261Z,31.02
2019-03-04T13:36:14.938Z,30.74
2019-03-04T13:37:20.016Z,30.59
2019-03-04T13:38:23.863Z,30.51
2019-03-04T13:39:27.499Z,30.43
2019-03-04T13:40:32.031Z,30.63
2019-03-04T13:41:35.954Z,30.89
2019-03-04T13:42:39.590Z,30.98
2019-03-04T13:43:43.272Z,30.81
2019-03-04T13:45:58.624Z,30.75
2019-03-04T13:47:02.269Z,30.33
2019-03-04T13:48:06.027Z,29.58
2019-03-04T13:49:09.690Z,28.52
2019-03-04T13:50:18.736Z,28.35
2019-03-04T13:51:22.435Z,28.27
2019-03-04T13:52:26.584Z,28.25
2019-03-04T13:53:31.171Z,28.44
2019-03-04T13:54:34.881Z,28.74
2019-03-04T13:55:38.894Z,28.78
2019-03-04T13:56:42.533Z,28.52
2019-03-04T13:57:46.358Z,28.01
2019-03-04T13:58:49.988Z,28.09
2019-03-04T13:59:53.661Z,27.99
2019-03-04T14:00:57.289Z,27.78
2019-03-04T14:02:01.259Z,27.72
2019-03-04T14:03:05.087Z,27.32
2019-03-04T14:04:08.729Z,26.65
2019-03-04T14:05:14.500Z,26.60
2019-03-04T14:06:19.864Z,26.63
2019-03-04T14:07:23.480Z,26.80
2019-03-04T14:08:27.202Z,26.62
2019-03-04T14:09:30.911Z,26.53
2019-03-04T14:10:45.525Z,26.84
2019-03-04T14:11:49.157Z,27.01
2019-03-04T14:12:52.802Z,27.07